Terminal Aerodrome Forecast
Issued by NWS

Current Version | Previous Version | Text Only | Print | Product List | Glossary On
Versions: 1 2 3 4 5 6 7 8 9 10 11 12 13
000
FTUS43 KICT 181731
TAFSLN
TAF
KSLN 181731Z 1818/1918 18027G37KT P6SM BKN200
     FM190000 18019G27KT P6SM FEW200
     FM190400 18018G25KT P6SM BKN060 WS020/21050KT
     FM190900 21016G24KT P6SM BKN045
     FM191200 25016G24KT P6SM BKN030
     FM191400 34014KT P6SM BKN030=

USA.gov is the U.S. government's official web portal to all federal, state and local government web resources and services.